INFORMACIÓN METAR y TAF
METAR FOR LTBA
ADDS - METARS form results

(2212 UTC 13 August 2022)
Data provider http://aviationweather.gov/metar/data/
 
METAR text: LTBA 132150Z 04004KT CAVOK 24/21 Q1007 NOSIG RMK RWY23 03005KT
Conditions at: LTBA (ISTANBUL/ATATURK, TR) observed 2150 UTC 13 August 2022
Temperature: 24.0°C (75°F)
Dewpoint: 21.0°C (70°F) [RH = 83%]
Pressure (altimeter): 29.73 inches Hg (1007.0 mb)
Winds: from the NE (40 degrees) at 5 MPH (4 knots; 2.1 m/s)
Visibility: 6 or more miles (10+ km)
Ceiling: ceiling and visibility are OK
Clouds: unknown
Weather: no significant weather observed at this time

METAR text: LTBA 132120Z 06004KT CAVOK 24/20 Q1008 NOSIG RMK RWY23 05004KT
Conditions at: LTBA (ISTANBUL/ATATURK, TR) observed 2120 UTC 13 August 2022
Temperature: 24.0°C (75°F)
Dewpoint: 20.0°C (68°F) [RH = 78%]
Pressure (altimeter): 29.76 inches Hg (1008.0 mb)
Winds: from the ENE (60 degrees) at 5 MPH (4 knots; 2.1 m/s)
Visibility: 6 or more miles (10+ km)
Ceiling: ceiling and visibility are OK
Clouds: unknown
Weather: no significant weather observed at this time

Forecast for: LTBA (ISTANBUL/ATATURK, TR)
Text: TAF LTBA 131640Z 1318/1424 03009KT CAVOK
Forecast period: 1800 to 2100 UTC 13 August 2022
Forecast type: FROM: standard forecast or significant change
Winds: from the NNE (30 degrees) at 10 MPH (9 knots; 4.6 m/s)
Visibility: 6 or more miles (10+ km)
Ceiling: unknown
Clouds: missing
Weather: NSW  (no significant weather)
Text: BECMG 1321/1324 SCT032
Forecast period: 2100 UTC 13 August 2022 to 0000 UTC 15 August 2022
Forecast type: BECOMING: Conditions expected to become as follows by 0000 UTC 14 August 2022
Winds: from the NNE (30 degrees) at 10 MPH (9 knots; 4.6 m/s)
Visibility: 6 or more miles (10+ km)
Ceiling: at least 12,000 feet AGL
Clouds: scattered clouds at 3200 feet AGL
Weather: NSW  (no significant weather)

 MAPA DE AEROPUERTO

 INFORMACIÓN DE PISTA